Time;durP1;ratioP1;P1;durP2;ratioP2;P2;SDS_P1;SDS_P2;PMS_P1;PMS_P2;Temp;Humidity;BMP_temperature;BMP_pressure;BME280_temperature;BME280_humidity;BME280_pressure;Samples;Min_cycle;Max_cycle;Signal;HPM_P1;HPM_P2
2023/10/17 00:02:26;;;;;;;59.88;44.40;;;8.00;99.90;;;;;;6159162;23;20429;-94
2023/10/17 00:04:52;;;;;;;36.67;30.08;;;8.20;99.90;;;;;;6158928;23;20421;-94
2023/10/17 00:07:20;;;;;;;34.38;27.88;;;7.80;99.90;;;;;;6158539;23;20375;-94
2023/10/17 00:09:48;;;;;;;46.17;35.95;;;7.80;99.90;;;;;;6159264;23;20368;-95
2023/10/17 00:12:25;;;;;;;31.10;26.90;;;7.90;99.90;;;;;;6157704;23;20451;-94
2023/10/17 00:17:17;;;;;;;38.35;30.73;;;7.90;99.90;;;;;;6182619;23;20428;-94
2023/10/17 00:19:44;;;;;;;42.90;35.05;;;7.80;99.90;;;;;;6158983;23;20371;-96
2023/10/17 00:22:18;;;;;;;28.20;22.63;;;7.80;99.90;;;;;;6158414;23;20356;-94
2023/10/17 00:24:46;;;;;;;29.88;25.45;;;8.70;99.90;;;;;;6158168;23;20371;-95
2023/10/17 00:27:13;;;;;;;31.23;26.97;;;8.00;99.90;;;;;;6159017;23;20368;-93
2023/10/17 00:29:39;;;;;;;34.78;29.05;;;7.80;99.90;;;;;;6157859;23;20429;-95
2023/10/17 00:32:08;;;;;;;26.23;23.37;;;7.70;99.90;;;;;;6158578;23;21024;-96
2023/10/17 00:34:35;;;;;;;28.48;21.95;;;7.70;99.90;;;;;;6157911;23;20367;-95
2023/10/17 00:37:06;;;;;;;30.98;26.90;;;7.80;99.90;;;;;;6158434;23;20400;-94
2023/10/17 00:39:32;;;;;;;31.60;26.25;;;7.80;99.90;;;;;;6158457;23;20423;-95
2023/10/17 00:44:32;;;;;;;33.30;28.35;;;7.80;99.90;;;;;;6182912;23;20376;-94
2023/10/17 00:47:01;;;;;;;33.15;28.10;;;7.80;99.90;;;;;;6157785;23;20372;-96
2023/10/17 00:49:29;;;;;;;28.85;23.05;;;7.80;99.90;;;;;;6158382;23;20367;-94
2023/10/17 00:52:03;;;;;;;26.75;23.77;;;7.80;99.90;;;;;;6157515;23;20443;-94
2023/10/17 00:54:35;;;;;;;31.27;25.23;;;7.90;99.90;;;;;;6158566;23;20380;-94
2023/10/17 00:57:05;;;;;;;28.42;23.20;;;7.90;99.90;;;;;;6157758;23;20399;-94
2023/10/17 00:59:32;;;;;;;28.58;24.48;;;7.90;99.90;;;;;;6157834;23;20368;-94
2023/10/17 01:02:07;;;;;;;39.25;31.23;;;7.90;99.90;;;;;;6158504;23;20372;-94
2023/10/17 01:04:40;;;;;;;36.88;30.50;;;7.90;99.90;;;;;;6157270;23;20479;-95
2023/10/17 01:07:06;;;;;;;34.63;27.27;;;7.90;99.90;;;;;;6158273;23;20375;-94
2023/10/17 01:09:35;;;;;;;30.85;26.02;;;7.90;99.90;;;;;;6157580;23;20375;-95
2023/10/17 01:12:10;;;;;;;26.27;23.48;;;7.90;99.90;;;;;;6158110;23;20367;-94
2023/10/17 01:14:37;;;;;;;30.92;24.90;;;7.80;99.90;;;;;;6158812;23;20379;-94
2023/10/17 01:17:07;;;;;;;25.27;21.23;;;7.80;99.90;;;;;;6157757;23;20399;-96
2023/10/17 01:19:37;;;;;;;25.95;22.48;;;7.80;99.90;;;;;;6158695;23;20375;-93
2023/10/17 01:22:03;;;;;;;22.90;19.98;;;7.80;99.90;;;;;;6145473;23;20380;-93
2023/10/17 01:24:30;;;;;;;22.33;19.33;;;7.70;99.90;;;;;;6158928;23;20372;-94
2023/10/17 01:26:56;;;;;;;22.80;19.75;;;7.70;99.90;;;;;;6157791;23;20446;-94
2023/10/17 01:29:23;;;;;;;25.73;22.65;;;7.70;99.90;;;;;;6158839;23;20394;-95
2023/10/17 01:31:50;;;;;;;22.38;19.90;;;7.70;99.90;;;;;;6158410;23;20380;-93
2023/10/17 01:34:18;;;;;;;23.05;19.73;;;7.70;99.90;;;;;;6157000;23;20372;-95
2023/10/17 01:36:44;;;;;;;34.35;26.50;;;7.60;99.90;;;;;;6158580;23;20693;-94
2023/10/17 01:39:11;;;;;;;27.65;24.73;;;7.60;99.90;;;;;;6157267;23;20486;-94
2023/10/17 01:41:47;;;;;;;23.88;20.23;;;7.60;99.90;;;;;;6158009;23;20376;-95
2023/10/17 01:44:14;;;;;;;20.90;18.38;;;7.60;99.90;;;;;;6152592;23;20377;-95
2023/10/17 01:46:43;;;;;;;21.30;17.77;;;7.60;99.90;;;;;;6152564;23;20385;-94
2023/10/17 01:49:13;;;;;;;19.00;16.02;;;7.60;99.90;;;;;;6154734;23;20369;-96
2023/10/17 01:51:44;;;;;;;20.17;16.60;;;7.80;99.90;;;;;;6153669;23;20435;-96
2023/10/17 01:54:14;;;;;;;25.00;21.65;;;7.70;99.90;;;;;;6155831;23;20374;-96
2023/10/17 01:56:46;;;;;;;28.63;22.65;;;7.40;99.90;;;;;;6153362;23;20420;-96
2023/10/17 01:59:17;;;;;;;35.30;26.65;;;7.30;99.90;;;;;;6156060;23;20867;-96
2023/10/17 02:01:43;;;;;;;20.85;17.08;;;7.60;99.90;;;;;;6153991;23;20365;-95
2023/10/17 02:04:16;;;;;;;37.23;27.20;;;7.20;99.90;;;;;;6153923;23;20373;-96
2023/10/17 02:06:42;;;;;;;24.88;19.65;;;7.40;99.90;;;;;;6154470;23;20393;-95
2023/10/17 02:11:54;;;;;;;16.60;14.90;;;7.00;99.90;;;;;;6178937;23;20427;-95
2023/10/17 02:14:23;;;;;;;15.02;12.55;;;6.90;99.90;;;;;;6152719;23;20369;-96
2023/10/17 02:16:49;;;;;;;14.68;12.88;;;6.90;99.90;;;;;;6153828;23;20397;-96
2023/10/17 02:19:16;;;;;;;17.88;14.98;;;7.00;99.90;;;;;;6153442;23;20885;-96
2023/10/17 02:21:45;;;;;;;14.63;13.07;;;6.80;99.90;;;;;;6152985;23;20370;-95
2023/10/17 02:24:11;;;;;;;14.73;13.27;;;6.80;99.90;;;;;;6153417;23;20424;-95
2023/10/17 02:26:49;;;;;;;17.25;14.32;;;6.70;99.90;;;;;;6152636;23;20419;-94
2023/10/17 02:29:15;;;;;;;16.52;14.82;;;6.70;99.90;;;;;;6152327;23;20377;-95
2023/10/17 02:31:41;;;;;;;17.48;13.52;;;6.70;99.90;;;;;;6151594;23;20380;-93
2023/10/17 02:34:10;;;;;;;17.58;14.35;;;6.70;99.90;;;;;;6152017;23;20369;-95
2023/10/17 02:36:36;;;;;;;14.82;12.55;;;6.60;99.90;;;;;;6152192;23;20397;-93
2023/10/17 02:39:04;;;;;;;15.18;12.35;;;6.50;99.90;;;;;;6152477;23;20376;-94
2023/10/17 02:41:31;;;;;;;15.23;12.40;;;6.50;99.90;;;;;;6153113;23;20452;-93
2023/10/17 02:43:58;;;;;;;13.75;12.35;;;6.30;99.90;;;;;;6152029;23;20507;-94
2023/10/17 02:46:28;;;;;;;35.47;17.30;;;6.30;99.90;;;;;;6153323;23;20957;-94
2023/10/17 02:48:59;;;;;;;48.95;12.82;;;6.00;99.90;;;;;;6152828;23;20373;-94
2023/10/17 02:53:56;;;;;;;10.40;9.30;;;6.20;99.90;;;;;;6177841;23;20373;-92
2023/10/17 02:56:23;;;;;;;17.23;13.68;;;6.10;99.90;;;;;;6152063;23;20454;-93
2023/10/17 02:58:51;;;;;;;14.80;11.20;;;6.00;99.90;;;;;;6154205;23;20366;-93
2023/10/17 03:01:18;;;;;;;9.75;8.85;;;5.90;99.90;;;;;;6154206;23;20409;-93
2023/10/17 03:03:49;;;;;;;13.15;11.65;;;5.80;99.90;;;;;;6155334;23;20366;-93
2023/10/17 03:06:16;;;;;;;10.85;9.23;;;5.70;99.90;;;;;;6154923;23;20369;-94
2023/10/17 03:08:49;;;;;;;16.70;12.85;;;6.00;99.90;;;;;;6155052;23;20374;-94
2023/10/17 03:11:17;;;;;;;11.95;10.75;;;5.50;99.90;;;;;;6155082;23;20405;-92
2023/10/17 03:13:47;;;;;;;18.73;13.43;;;5.50;99.90;;;;;;6154381;23;20372;-94
2023/10/17 03:16:30;;;;;;;17.43;14.93;;;5.40;99.90;;;;;;6155464;23;20404;-93
2023/10/17 03:18:58;;;;;;;17.25;14.65;;;5.40;99.90;;;;;;6156060;23;20392;-93
2023/10/17 03:21:34;;;;;;;25.52;19.73;;;5.40;99.90;;;;;;6155689;23;20428;-95
2023/10/17 03:24:04;;;;;;;21.27;16.50;;;5.40;99.90;;;;;;6154901;23;20461;-92
2023/10/17 03:26:39;;;;;;;15.70;14.00;;;5.40;99.90;;;;;;6157356;23;20380;-94
2023/10/17 03:29:19;;;;;;;16.93;14.80;;;5.40;99.90;;;;;;6155043;23;20365;-92
2023/10/17 03:31:53;;;;;;;21.45;17.95;;;5.40;99.90;;;;;;6154502;23;20365;-95
2023/10/17 03:34:33;;;;;;;17.27;15.50;;;5.40;99.90;;;;;;6155525;23;21049;-94
2023/10/17 03:37:47;;;;;;;15.68;14.18;;;5.50;99.90;;;;;;6154469;23;20432;-93
2023/10/17 03:39:54;;;;;;;17.95;14.90;;;5.50;99.90;;;;;;6158010;23;20401;-94
2023/10/17 03:45:13;;;;;;;20.17;17.47;;;5.40;99.90;;;;;;6178622;23;20381;-92
2023/10/17 03:47:53;;;;;;;20.33;16.88;;;5.40;99.90;;;;;;6155060;23;20385;-93
2023/10/17 03:50:48;;;;;;;15.70;14.10;;;5.70;99.90;;;;;;6154876;23;20781;-93
2023/10/17 03:53:15;;;;;;;12.93;11.63;;;5.30;99.90;;;;;;6154431;23;20454;-92
2023/10/17 03:55:43;;;;;;;19.70;15.35;;;5.30;99.90;;;;;;6155084;23;20397;-93
2023/10/17 04:00:53;;;;;;;17.88;15.30;;;5.30;99.90;;;;;;6179821;23;20405;-93
2023/10/17 04:03:42;;;;;;;19.63;16.83;;;5.20;99.90;;;;;;6155105;23;20460;-93
2023/10/17 04:08:37;;;;;;;18.88;16.05;;;5.50;99.90;;;;;;6179767;23;20377;-95
2023/10/17 04:13:56;;;;;;;16.85;15.07;;;5.10;99.90;;;;;;6179437;23;20796;-95
2023/10/17 04:16:34;;;;;;;17.63;15.07;;;5.10;99.90;;;;;;6154562;23;20400;-95
2023/10/17 04:19:18;;;;;;;13.27;11.88;;;5.00;99.90;;;;;;6154066;23;20366;-95
2023/10/17 04:21:49;;;;;;;13.07;11.70;;;5.00;99.90;;;;;;6155407;23;20460;-95
2023/10/17 04:24:26;;;;;;;14.73;12.77;;;5.10;99.90;;;;;;6154159;23;20377;-96
2023/10/17 04:27:05;;;;;;;17.30;15.55;;;5.00;99.90;;;;;;6155509;23;20378;-94
2023/10/17 04:29:31;;;;;;;12.70;11.47;;;5.00;99.90;;;;;;6154750;23;20464;-95
2023/10/17 04:32:04;;;;;;;13.87;11.10;;;5.30;99.90;;;;;;6179116;23;20449;-96
2023/10/17 04:34:32;;;;;;;12.85;11.55;;;5.00;99.90;;;;;;6154975;23;20859;-94
2023/10/17 04:37:03;;;;;;;16.25;14.55;;;5.10;99.90;;;;;;6153355;23;20401;-94
2023/10/17 04:44:32;;;;;;;17.75;15.85;;;5.10;99.90;;;;;;6178472;23;20363;-93
2023/10/17 04:49:31;;;;;;;17.97;16.00;;;4.90;99.90;;;;;;6178372;23;20380;-94
2023/10/17 04:52:06;;;;;;;17.65;15.73;;;4.90;99.90;;;;;;6155160;23;20370;-94
2023/10/17 04:57:18;;;;;;;21.58;18.08;;;4.80;99.90;;;;;;6179050;23;20459;-93
2023/10/17 05:08:11;;;;;;;18.20;15.27;;;4.70;99.90;;;;;;6177541;23;20432;-95
2023/10/17 06:18:57;;;;;;;15.45;13.95;;;5.10;99.90;;;;;;6183668;23;20438;-93
2023/10/17 06:22:35;;;;;;;16.17;14.43;;;5.10;99.90;;;;;;6158308;23;20700;-94
2023/10/17 06:28:20;;;;;;;25.88;21.00;;;5.10;99.90;;;;;;6183985;23;20921;-92
2023/10/17 06:32:49;;;;;;;25.63;21.38;;;5.50;99.90;;;;;;6183940;23;20386;-94
2023/10/17 06:35:20;;;;;;;22.13;17.98;;;5.00;99.90;;;;;;6160619;23;20400;-95
2023/10/17 06:37:49;;;;;;;21.30;17.07;;;4.90;99.90;;;;;;6159272;23;20387;-95
2023/10/17 06:40:16;;;;;;;23.77;18.85;;;4.90;99.90;;;;;;6161572;23;20438;-94
2023/10/17 06:42:50;;;;;;;42.70;30.07;;;4.80;99.90;;;;;;6159596;23;20851;-96
2023/10/17 06:45:20;;;;;;;18.75;16.27;;;4.80;99.90;;;;;;6160138;23;20375;-95
2023/10/17 06:47:49;;;;;;;24.77;20.02;;;4.80;99.90;;;;;;6160251;23;20414;-93
2023/10/17 06:52:54;;;;;;;13.98;12.65;;;4.70;99.90;;;;;;6185170;23;20371;-95
2023/10/17 06:55:34;;;;;;;21.03;18.03;;;4.70;99.90;;;;;;6159688;23;20379;-95
2023/10/17 06:58:09;;;;;;;20.38;18.15;;;4.70;99.90;;;;;;6160539;23;20375;-93
2023/10/17 07:00:52;;;;;;;18.63;16.70;;;4.90;99.90;;;;;;6160487;23;20398;-94
2023/10/17 07:03:25;;;;;;;16.73;14.23;;;4.90;99.90;;;;;;6160167;23;20372;-93
2023/10/17 07:05:54;;;;;;;19.10;15.82;;;5.00;99.90;;;;;;6160191;23;20866;-94
2023/10/17 07:08:20;;;;;;;30.77;18.73;;;5.10;99.90;;;;;;6159129;23;20372;-94
2023/10/17 07:16:41;;;;;;;18.25;16.35;;;5.30;99.90;;;;;;6184272;23;20395;-92
2023/10/17 07:24:23;;;;;;;13.77;12.48;;;5.60;99.90;;;;;;6184018;23;20376;-93
2023/10/17 07:26:52;;;;;;;15.48;13.88;;;5.70;99.90;;;;;;6159700;23;20442;-94
2023/10/17 07:29:23;;;;;;;12.88;11.40;;;6.20;99.90;;;;;;6158830;23;20450;-93
2023/10/17 07:31:54;;;;;;;16.23;13.60;;;6.00;99.90;;;;;;6160029;23;20410;-93
2023/10/17 07:34:24;;;;;;;15.63;12.52;;;6.00;99.90;;;;;;6159255;23;20376;-94
2023/10/17 07:36:58;;;;;;;14.73;11.75;;;6.10;99.90;;;;;;6159859;23;20442;-94
2023/10/17 07:39:36;;;;;;;12.00;10.73;;;6.20;99.90;;;;;;6161036;23;20429;-95
2023/10/17 07:42:04;;;;;;;16.33;13.25;;;6.80;99.90;;;;;;6159218;23;20433;-95
2023/10/17 07:44:34;;;;;;;13.27;9.98;;;6.50;99.90;;;;;;6159462;23;20375;-94
2023/10/17 07:49:38;;;;;;;10.55;8.75;;;6.70;99.90;;;;;;6184110;23;20392;-94
2023/10/17 07:52:12;;;;;;;11.10;8.35;;;6.80;99.90;;;;;;6157993;23;20368;-93
2023/10/17 07:54:45;;;;;;;11.98;9.10;;;6.90;99.90;;;;;;6157859;23;20759;-93
2023/10/17 07:57:23;;;;;;;11.80;8.80;;;7.10;99.90;;;;;;6159766;23;20406;-93
2023/10/17 07:59:52;;;;;;;8.50;4.43;;;7.20;99.90;;;;;;6157458;23;20368;-94
2023/10/17 08:02:30;;;;;;;11.53;5.87;;;7.30;99.90;;;;;;6159623;23;20372;-93
2023/10/17 08:05:00;;;;;;;11.38;4.70;;;7.40;99.90;;;;;;6157409;23;20368;-94
2023/10/17 08:07:29;;;;;;;10.57;6.00;;;7.60;99.90;;;;;;6158422;23;20470;-94
2023/10/17 08:09:58;;;;;;;7.63;3.45;;;7.90;99.90;;;;;;6158136;23;20372;-94
2023/10/17 08:12:24;;;;;;;8.40;3.95;;;8.50;99.90;;;;;;6157677;23;20399;-93
2023/10/17 08:15:19;;;;;;;7.93;5.43;;;7.90;99.90;;;;;;6158244;23;21050;-96
2023/10/17 08:17:48;;;;;;;7.10;3.85;;;8.70;99.90;;;;;;6157722;23;20422;-95
2023/10/17 08:22:55;;;;;;;7.28;3.17;;;8.20;99.90;;;;;;6183324;23;20708;-92
2023/10/17 08:25:52;;;;;;;7.32;2.80;;;8.30;99.90;;;;;;6157777;23;20878;-94
2023/10/17 08:28:31;;;;;;;6.25;3.20;;;8.40;99.90;;;;;;6181557;23;20467;-93
2023/10/17 08:31:05;;;;;;;5.53;2.60;;;8.50;99.90;;;;;;6182502;23;20429;-92
2023/10/17 08:33:44;;;;;;;5.78;2.55;;;8.60;99.90;;;;;;6157848;23;20383;-93
2023/10/17 08:36:10;;;;;;;6.73;2.10;;;8.70;99.90;;;;;;6158261;23;20747;-92
2023/10/17 08:38:39;;;;;;;5.55;2.80;;;8.50;99.90;;;;;;6156999;23;20376;-93
2023/10/17 08:41:08;;;;;;;6.00;2.25;;;9.20;99.90;;;;;;6158580;23;20371;-93
2023/10/17 08:43:36;;;;;;;5.07;1.90;;;9.20;99.90;;;;;;6157202;23;20382;-93
2023/10/17 08:46:12;;;;;;;7.20;3.43;;;9.10;99.90;;;;;;6158492;23;20375;-94
2023/10/17 08:48:38;;;;;;;6.65;2.60;;;9.20;99.90;;;;;;6157909;23;20408;-93
2023/10/17 08:51:07;;;;;;;6.55;3.03;;;9.20;99.90;;;;;;6158083;23;20414;-90
2023/10/17 08:53:34;;;;;;;7.25;3.15;;;9.30;99.90;;;;;;6158423;23;21107;-92
2023/10/17 08:56:02;;;;;;;7.13;2.30;;;9.40;99.90;;;;;;6156864;23;20395;-91
2023/10/17 08:58:32;;;;;;;5.32;2.35;;;9.50;99.90;;;;;;6157981;23;20414;-94
2023/10/17 09:01:07;;;;;;;3.85;1.30;;;9.60;99.90;;;;;;6157009;23;20380;-92
2023/10/17 09:03:37;;;;;;;3.60;0.80;;;9.80;99.90;;;;;;6157604;23;20382;-93
2023/10/17 09:11:41;;;;;;;4.03;0.80;;;10.00;99.90;;;;;;6183342;23;20368;-93
2023/10/17 09:14:24;;;;;;;4.97;0.82;;;10.20;99.90;;;;;;6157552;23;20396;-95
2023/10/17 09:17:11;;;;;;;4.50;0.90;;;10.30;99.90;;;;;;6157711;23;20392;-94
2023/10/17 09:19:51;;;;;;;4.32;1.13;;;10.50;99.90;;;;;;6157887;23;20376;-91
2023/10/17 09:22:38;;;;;;;4.03;1.10;;;10.60;99.90;;;;;;6156765;23;20378;-93
2023/10/17 09:25:22;;;;;;;5.90;1.10;;;10.80;99.90;;;;;;6157672;23;20368;-92
2023/10/17 09:27:53;;;;;;;3.42;0.70;;;10.90;99.90;;;;;;6158333;23;20376;-94
2023/10/17 09:30:19;;;;;;;3.70;0.60;;;11.40;99.90;;;;;;6157274;23;20379;-92
2023/10/17 09:32:46;;;;;;;2.50;0.60;;;11.20;99.90;;;;;;6157681;23;20372;-94
2023/10/17 09:35:14;;;;;;;3.03;0.40;;;11.30;99.90;;;;;;6157349;23;20782;-94
2023/10/17 09:37:50;;;;;;;3.63;0.50;;;11.50;99.90;;;;;;6158638;23;20406;-93
2023/10/17 09:40:33;;;;;;;2.33;0.45;;;11.60;99.90;;;;;;6157608;23;20363;-94
2023/10/17 09:43:00;;;;;;;4.85;0.60;;;11.60;99.90;;;;;;6157100;23;20433;-91
2023/10/17 09:45:33;;;;;;;3.22;0.50;;;11.60;99.90;;;;;;6156399;23;20755;-91
2023/10/17 09:48:04;;;;;;;3.15;0.70;;;11.80;99.90;;;;;;6156401;23;20404;-91
2023/10/17 09:50:34;;;;;;;3.85;0.50;;;12.30;99.90;;;;;;6157592;23;20846;-91
2023/10/17 09:53:12;;;;;;;3.08;0.50;;;12.20;99.90;;;;;;6156788;23;20364;-90
2023/10/17 09:55:43;;;;;;;1.88;0.43;;;12.30;99.90;;;;;;6156254;23;20379;-91
2023/10/17 09:58:10;;;;;;;3.63;0.50;;;12.40;99.90;;;;;;6157033;23;20378;-91
2023/10/17 10:00:51;;;;;;;4.45;0.70;;;12.50;99.90;;;;;;6181048;23;20375;-91
2023/10/17 10:03:17;;;;;;;2.63;0.50;;;12.60;99.90;;;;;;6156548;23;20433;-91
2023/10/17 10:05:43;;;;;;;4.22;0.75;;;12.80;99.90;;;;;;6156910;23;20697;-89
2023/10/17 10:08:34;;;;;;;3.65;0.45;;;13.20;99.90;;;;;;6156885;23;20371;-91
2023/10/17 10:11:01;;;;;;;3.58;0.70;;;12.80;99.90;;;;;;6157957;23;20375;-91
2023/10/17 10:13:27;;;;;;;4.00;0.70;;;12.90;99.90;;;;;;6157362;23;20422;-91
2023/10/17 10:16:04;;;;;;;3.17;0.68;;;12.80;99.90;;;;;;6158347;23;20391;-91
2023/10/17 10:18:35;;;;;;;2.37;0.40;;;13.60;99.90;;;;;;6157614;23;20376;-92
2023/10/17 10:21:07;;;;;;;4.00;0.93;;;13.30;99.60;;;;;;6158022;23;20704;-89
2023/10/17 10:23:34;;;;;;;3.58;0.57;;;13.70;99.50;;;;;;6157999;23;20382;-91
2023/10/17 10:26:19;;;;;;;3.40;0.70;;;14.00;99.90;;;;;;6157596;23;20371;-91
2023/10/17 10:28:52;;;;;;;3.67;0.60;;;13.60;99.90;;;;;;6158023;23;20376;-91
2023/10/17 10:31:24;;;;;;;3.57;0.77;;;13.50;96.20;;;;;;6157766;23;20436;-90
2023/10/17 10:34:00;;;;;;;4.00;0.57;;;13.50;99.90;;;;;;6157974;23;20739;-91
2023/10/17 10:36:29;;;;;;;4.88;0.80;;;13.70;99.90;;;;;;6157358;23;20399;-93
2023/10/17 10:39:12;;;;;;;3.45;0.90;;;14.10;99.90;;;;;;6160033;23;21778;-94
2023/10/17 10:41:52;;;;;;;4.40;0.93;;;14.00;99.90;;;;;;6158458;23;20376;-94
2023/10/17 10:44:21;;;;;;;4.30;0.90;;;14.10;96.30;;;;;;6156908;23;20383;-93
2023/10/17 10:46:47;;;;;;;3.70;0.60;;;14.40;99.90;;;;;;6157495;23;20909;-92
2023/10/17 10:49:13;;;;;;;2.17;0.40;;;14.20;99.90;;;;;;6156380;23;20363;-92
2023/10/17 10:51:47;;;;;;;2.95;0.32;;;14.70;89.10;;;;;;6157261;23;20368;-92
2023/10/17 10:54:13;;;;;;;4.28;0.40;;;14.40;93.40;;;;;;6157363;23;20364;-92
2023/10/17 10:56:39;;;;;;;3.15;0.52;;;14.90;88.30;;;;;;6156516;23;20398;-92
2023/10/17 10:59:05;;;;;;;4.13;0.65;;;14.80;99.90;;;;;;6157259;23;20378;-93
2023/10/17 11:01:30;;;;;;;3.23;0.67;;;15.10;93.40;;;;;;6156179;23;20371;-93
2023/10/17 11:03:58;;;;;;;4.20;0.90;;;14.80;96.90;;;;;;6157440;23;20368;-94
2023/10/17 11:06:27;;;;;;;3.20;0.70;;;14.90;92.70;;;;;;6157104;23;20516;-93
2023/10/17 11:08:54;;;;;;;3.58;0.70;;;15.00;92.30;;;;;;6157619;23;20422;-93
2023/10/17 11:11:20;;;;;;;3.50;0.50;;;14.90;85.50;;;;;;6157904;23;20363;-93
2023/10/17 11:13:47;;;;;;;2.53;0.50;;;15.40;90.20;;;;;;6156635;23;20446;-92
2023/10/17 11:16:20;;;;;;;4.37;0.57;;;15.20;81.60;;;;;;6157547;23;20395;-94
2023/10/17 11:18:47;;;;;;;3.47;0.30;;;14.70;88.30;;;;;;6156747;23;20451;-94
2023/10/17 11:21:14;;;;;;;3.20;0.57;;;14.80;79.60;;;;;;6160226;23;20380;-91
2023/10/17 11:23:41;;;;;;;3.40;0.52;;;15.00;78.70;;;;;;6158449;23;20364;-94
2023/10/17 11:26:11;;;;;;;4.68;0.40;;;15.00;79.40;;;;;;6159265;23;20372;-94
2023/10/17 11:28:46;;;;;;;4.10;0.30;;;15.00;82.80;;;;;;6158870;23;20418;-94
2023/10/17 11:31:24;;;;;;;2.53;0.32;;;15.00;90.20;;;;;;6158130;23;20367;-92
2023/10/17 11:33:55;;;;;;;3.47;0.40;;;15.10;85.60;;;;;;6160577;23;20368;-93
2023/10/17 11:36:22;;;;;;;2.85;0.50;;;15.40;70.30;;;;;;6158412;23;20475;-91
2023/10/17 11:38:56;;;;;;;2.73;0.20;;;15.40;67.30;;;;;;6158995;23;20383;-93
2023/10/17 11:41:28;;;;;;;2.72;0.30;;;14.90;70.40;;;;;;6159478;23;20379;-94
2023/10/17 11:43:54;;;;;;;2.55;0.30;;;14.80;82.70;;;;;;6158950;23;20376;-93
2023/10/17 11:46:33;;;;;;;2.67;0.30;;;15.00;69.80;;;;;;6158840;23;20659;-92
2023/10/17 11:49:21;;;;;;;2.60;0.30;;;14.70;80.70;;;;;;6157549;23;20422;-93
2023/10/17 11:51:57;;;;;;;1.95;0.30;;;15.30;92.00;;;;;;6158998;23;20693;-93
2023/10/17 11:54:23;;;;;;;3.10;0.40;;;14.80;87.70;;;;;;6158430;23;20394;-93
2023/10/17 11:56:48;;;;;;;2.70;0.30;;;14.80;79.80;;;;;;6158037;23;20392;-95
2023/10/17 11:59:20;;;;;;;1.73;0.20;;;15.10;77.80;;;;;;6158926;23;20421;-94
2023/10/17 12:01:47;;;;;;;2.45;0.20;;;15.20;83.00;;;;;;6158927;23;20367;-94
2023/10/17 12:04:17;;;;;;;2.40;0.28;;;15.20;78.30;;;;;;6159128;23;20690;-94
2023/10/17 12:06:47;;;;;;;1.55;0.30;;;15.10;90.90;;;;;;6157835;23;20371;-92
2023/10/17 12:11:52;;;;;;;2.50;0.30;;;15.20;66.90;;;;;;6183084;23;20376;-94
2023/10/17 12:14:23;;;;;;;2.13;0.40;;;15.50;87.80;;;;;;6157803;23;20378;-94
2023/10/17 12:16:53;;;;;;;2.37;0.30;;;15.60;79.00;;;;;;6157514;23;21102;-94
2023/10/17 12:19:26;;;;;;;2.28;0.30;;;15.60;67.90;;;;;;6156710;23;20371;-96
2023/10/17 12:21:53;;;;;;;2.80;0.35;;;15.00;78.80;;;;;;6157954;23;20860;-95
2023/10/17 12:24:21;;;;;;;3.03;0.30;;;15.80;76.50;;;;;;6159083;23;20368;-94
2023/10/17 12:26:55;;;;;;;2.78;0.50;;;15.30;80.70;;;;;;6162094;23;20375;-95
2023/10/17 12:29:25;;;;;;;2.55;0.40;;;14.70;68.90;;;;;;6160119;23;20368;-94
2023/10/17 12:31:57;;;;;;;4.85;1.50;;;14.90;80.40;;;;;;6158395;23;20432;-95
2023/10/17 12:34:27;;;;;;;3.10;0.57;;;15.30;79.40;;;;;;6157741;23;20408;-94
2023/10/17 12:36:53;;;;;;;1.85;0.30;;;14.50;78.90;;;;;;6157332;23;20755;-93
2023/10/17 12:39:19;;;;;;;1.85;0.40;;;15.00;76.40;;;;;;6158143;23;20364;-94
2023/10/17 12:41:46;;;;;;;2.78;0.30;;;14.60;79.20;;;;;;6157593;23;20458;-93
2023/10/17 12:44:12;;;;;;;1.73;0.30;;;14.60;81.30;;;;;;6158608;23;20379;-94
2023/10/17 12:46:39;;;;;;;3.22;0.40;;;14.50;84.30;;;;;;6157619;23;20371;-93
2023/10/17 12:49:06;;;;;;;3.22;0.43;;;14.80;84.40;;;;;;6158159;23;20360;-93
2023/10/17 12:51:32;;;;;;;2.70;0.40;;;14.60;72.90;;;;;;6157238;23;20363;-95
2023/10/17 12:53:58;;;;;;;1.20;0.20;;;14.70;89.00;;;;;;6157572;23;20458;-92
2023/10/17 12:56:24;;;;;;;3.25;0.50;;;14.60;90.30;;;;;;6160203;23;20423;-94
2023/10/17 12:58:56;;;;;;;3.17;0.60;;;14.60;74.00;;;;;;6164104;23;20466;-95
2023/10/17 13:01:25;;;;;;;3.35;0.50;;;14.40;70.50;;;;;;6160573;23;20374;-95
2023/10/17 13:03:57;;;;;;;3.80;0.60;;;14.10;75.80;;;;;;6157002;23;20423;-94
2023/10/17 13:06:25;;;;;;;3.17;0.40;;;14.60;76.90;;;;;;6159272;23;20430;-94
2023/10/17 13:08:56;;;;;;;3.47;0.40;;;14.90;76.90;;;;;;6158299;23;20364;-95
2023/10/17 13:11:24;;;;;;;2.17;0.43;;;14.00;84.10;;;;;;6160275;23;20460;-94
2023/10/17 13:13:49;;;;;;;3.20;0.60;;;14.20;78.20;;;;;;6161694;23;20371;-94
2023/10/17 13:16:15;;;;;;;3.15;0.40;;;14.00;90.60;;;;;;6159889;23;20757;-95
2023/10/17 13:18:41;;;;;;;3.25;0.50;;;14.00;91.00;;;;;;6162783;23;20378;-96
2023/10/17 13:21:12;;;;;;;2.22;0.40;;;14.40;72.50;;;;;;6160062;23;20410;-94
2023/10/17 13:23:42;;;;;;;2.33;0.50;;;14.10;77.00;;;;;;6159463;23;20375;-96
2023/10/17 13:26:23;;;;;;;3.65;0.40;;;13.80;79.30;;;;;;6158931;23;20578;-95
2023/10/17 13:28:48;;;;;;;2.72;0.50;;;13.80;91.90;;;;;;6129412;23;20381;-94
2023/10/17 13:31:18;;;;;;;2.15;0.40;;;13.70;82.10;;;;;;6127921;23;20416;-95
2023/10/17 13:33:50;;;;;;;3.78;0.60;;;13.70;87.00;;;;;;6149080;23;20451;-95
2023/10/17 13:36:46;;;;;;;2.67;0.50;;;13.60;85.60;;;;;;6153320;23;20401;-93
2023/10/17 13:39:22;;;;;;;2.42;0.40;;;13.60;82.50;;;;;;6131075;23;20909;-95
2023/10/17 13:41:53;;;;;;;2.63;0.55;;;13.60;78.80;;;;;;6130198;23;20424;-95
2023/10/17 13:44:19;;;;;;;3.45;0.70;;;14.30;77.60;;;;;;6128438;23;20396;-94
2023/10/17 13:46:48;;;;;;;4.00;0.70;;;13.60;78.00;;;;;;6126369;23;20383;-93
2023/10/17 13:49:14;;;;;;;2.73;0.50;;;13.50;90.80;;;;;;6136778;23;20479;-92
2023/10/17 13:51:46;;;;;;;3.30;0.68;;;13.70;90.30;;;;;;6119172;23;20789;-93
2023/10/17 13:54:13;;;;;;;2.78;0.60;;;13.40;86.50;;;;;;6136260;23;20371;-94
2023/10/17 13:56:40;;;;;;;3.03;0.68;;;13.90;90.50;;;;;;6119038;23;20965;-93
2023/10/17 13:59:09;;;;;;;2.10;0.60;;;13.40;84.90;;;;;;6128259;23;20369;-95
2023/10/17 14:01:42;;;;;;;3.03;0.70;;;13.80;88.60;;;;;;6127856;23;20385;-93
2023/10/17 14:04:11;;;;;;;2.40;0.70;;;13.30;87.70;;;;;;6125905;23;20367;-96
2023/10/17 14:06:39;;;;;;;3.40;0.80;;;13.30;83.30;;;;;;6122883;23;20950;-94
2023/10/17 14:09:15;;;;;;;2.90;0.80;;;13.10;84.00;;;;;;6129613;23;20420;-94
2023/10/17 14:11:42;;;;;;;2.40;0.80;;;13.20;83.50;;;;;;6122942;23;21052;-91
2023/10/17 14:14:10;;;;;;;2.95;0.80;;;13.10;89.90;;;;;;6129409;23;20452;-95
2023/10/17 14:16:40;;;;;;;3.05;0.70;;;13.10;82.60;;;;;;6121706;23;20395;-94
2023/10/17 14:19:18;;;;;;;3.80;1.00;;;13.50;90.80;;;;;;6126915;23;20374;-91
2023/10/17 14:25:11;;;;;;;2.70;0.93;;;13.30;85.00;;;;;;6177430;23;20408;-93
2023/10/17 14:27:22;;;;;;;3.33;1.00;;;12.90;88.40;;;;;;6148180;23;20563;-92
2023/10/17 14:30:11;;;;;;;3.38;1.17;;;13.20;91.20;;;;;;6124794;23;20406;-94
2023/10/17 14:32:37;;;;;;;3.80;0.80;;;13.10;90.30;;;;;;6128144;23;20705;-94
2023/10/17 14:35:06;;;;;;;4.50;0.90;;;13.00;90.00;;;;;;6128613;23;20365;-95
2023/10/17 14:37:32;;;;;;;3.53;0.70;;;12.60;90.20;;;;;;6140496;23;20402;-93
2023/10/17 14:40:00;;;;;;;2.90;0.70;;;12.50;92.10;;;;;;6126130;23;20448;-94
2023/10/17 14:42:29;;;;;;;3.95;0.70;;;13.10;93.70;;;;;;6140772;23;20367;-95
2023/10/17 14:44:55;;;;;;;3.30;0.88;;;12.90;90.40;;;;;;6126182;23;20386;-94
2023/10/17 14:47:21;;;;;;;3.42;0.55;;;12.50;92.00;;;;;;6139790;23;20379;-93
2023/10/17 14:49:50;;;;;;;3.70;0.68;;;13.10;91.70;;;;;;6122111;23;20371;-92
2023/10/17 14:52:18;;;;;;;2.90;0.50;;;12.50;91.00;;;;;;6128357;23;20369;-92
2023/10/17 14:54:43;;;;;;;2.95;0.50;;;13.50;90.60;;;;;;6129612;23;21214;-93
2023/10/17 14:57:10;;;;;;;3.30;0.70;;;12.90;90.60;;;;;;6152225;23;20395;-93
2023/10/17 14:59:38;;;;;;;2.03;0.50;;;12.50;90.90;;;;;;6124698;23;20451;-95
2023/10/17 15:02:05;;;;;;;2.13;0.50;;;12.40;92.30;;;;;;6115049;23;20759;-93
2023/10/17 15:04:37;;;;;;;3.00;0.80;;;12.30;95.00;;;;;;6126907;23;20385;-92
2023/10/17 15:07:04;;;;;;;2.45;0.50;;;12.70;92.30;;;;;;6126621;23;20371;-91
2023/10/17 15:09:29;;;;;;;2.55;0.40;;;12.50;93.20;;;;;;6124402;23;20922;-93
2023/10/17 15:11:55;;;;;;;2.93;0.50;;;12.20;93.40;;;;;;6129132;23;20371;-93
2023/10/17 15:14:26;;;;;;;2.60;0.40;;;12.20;92.20;;;;;;6128485;23;20369;-93
2023/10/17 15:16:54;;;;;;;3.63;0.50;;;11.90;94.30;;;;;;6129647;23;20397;-92
2023/10/17 15:19:20;;;;;;;2.45;0.40;;;12.30;96.90;;;;;;6128704;23;20392;-93
2023/10/17 15:21:46;;;;;;;1.52;0.40;;;12.30;96.20;;;;;;6146332;23;20796;-94
2023/10/17 15:24:14;;;;;;;2.38;0.30;;;12.30;97.00;;;;;;6129527;23;20401;-95
2023/10/17 15:26:39;;;;;;;3.22;0.50;;;12.40;97.40;;;;;;6144147;23;20374;-91